createdAt,value
2018-06-11T04:01:13.598Z,16.73
2018-06-11T04:03:40.611Z,17.33
2018-06-11T04:06:07.614Z,18.37
2018-06-11T04:08:34.614Z,17.97
2018-06-11T04:11:01.707Z,18.57
2018-06-11T04:13:28.655Z,18.70
2018-06-11T04:15:55.659Z,19.63
2018-06-11T04:18:22.658Z,18.70
2018-06-11T04:20:49.655Z,16.70
2018-06-11T04:23:16.638Z,19.10
2018-06-11T04:25:43.634Z,17.60
2018-06-11T04:28:10.642Z,18.20
2018-06-11T04:30:37.673Z,19.50
2018-06-11T04:33:04.809Z,18.70
2018-06-11T04:35:31.815Z,20.27
2018-06-11T04:37:58.866Z,18.57
2018-06-11T04:40:25.885Z,19.13
2018-06-11T04:42:52.910Z,18.30
2018-06-11T04:45:19.960Z,20.07
2018-06-11T04:47:46.942Z,19.30
2018-06-11T04:50:13.951Z,18.43
2018-06-11T04:52:41.029Z,19.40
2018-06-11T04:55:08.052Z,19.33
2018-06-11T04:57:35.050Z,19.80
2018-06-11T05:00:02.073Z,18.87
2018-06-11T05:02:29.166Z,19.50
2018-06-11T05:04:56.166Z,18.87
2018-06-11T05:07:23.175Z,20.17
2018-06-11T05:09:50.201Z,18.73
2018-06-11T05:12:17.207Z,19.27
2018-06-11T05:14:44.218Z,18.40
2018-06-11T05:17:11.250Z,18.50
2018-06-11T05:19:38.275Z,19.57
2018-06-11T05:22:05.301Z,18.63
2018-06-11T05:24:32.570Z,18.40
2018-06-11T05:26:59.609Z,18.70
2018-06-11T05:29:26.643Z,18.47
2018-06-11T05:31:53.655Z,18.80
2018-06-11T05:34:20.659Z,17.83
2018-06-11T05:36:47.806Z,17.67
2018-06-11T05:39:14.822Z,16.30
2018-06-11T05:41:41.889Z,16.70
2018-06-11T05:44:08.919Z,16.70
2018-06-11T05:46:35.941Z,17.23
2018-06-11T05:49:02.953Z,15.33
2018-06-11T05:51:30.020Z,16.50
2018-06-11T05:53:58.424Z,14.50
2018-06-11T05:56:25.965Z,15.93
2018-06-11T05:58:53.098Z,16.67
2018-06-11T06:01:20.074Z,15.53
2018-06-11T06:03:47.043Z,15.90
2018-06-11T06:06:23.307Z,15.73
2018-06-11T06:08:50.479Z,14.93
2018-06-11T06:11:23.063Z,14.30
2018-06-11T06:13:50.047Z,14.83
2018-06-11T06:16:17.018Z,14.90
2018-06-11T06:18:43.998Z,14.13
2018-06-11T06:21:10.982Z,14.67
2018-06-11T06:23:37.970Z,15.37
2018-06-11T06:26:04.933Z,13.97
2018-06-11T06:28:31.922Z,15.20
2018-06-11T06:30:58.885Z,14.50
2018-06-11T06:33:25.866Z,15.83
2018-06-11T06:35:52.864Z,13.60
2018-06-11T06:38:19.881Z,13.70
2018-06-11T06:40:46.925Z,15.20
2018-06-11T06:43:14.844Z,13.90
2018-06-11T06:45:41.823Z,14.80
2018-06-11T06:48:08.801Z,13.53
2018-06-11T06:50:35.765Z,14.50
2018-06-11T06:53:02.754Z,13.80
2018-06-11T06:55:29.734Z,14.60
2018-06-11T06:57:56.785Z,12.67
2018-06-11T07:00:23.765Z,14.33
2018-06-11T07:02:50.778Z,13.27
2018-06-11T07:05:17.778Z,14.60
2018-06-11T07:07:44.738Z,14.03
2018-06-11T07:10:11.716Z,13.20
2018-06-11T07:12:38.710Z,12.77
2018-06-11T07:15:05.687Z,12.83
2018-06-11T07:17:32.658Z,13.90
2018-06-11T07:19:59.799Z,13.47
2018-06-11T07:22:27.014Z,13.87
2018-06-11T07:24:54.027Z,12.73
2018-06-11T07:27:21.048Z,14.40
2018-06-11T07:29:48.138Z,13.00
2018-06-11T07:32:15.226Z,14.00
2018-06-11T07:34:42.278Z,13.23
2018-06-11T07:37:09.315Z,14.40
2018-06-11T07:39:36.454Z,13.90
2018-06-11T07:42:03.486Z,14.30
2018-06-11T07:44:30.502Z,13.07
2018-06-11T07:46:57.597Z,15.40
2018-06-11T07:49:24.737Z,13.20
2018-06-11T07:51:51.717Z,14.20
2018-06-11T07:54:18.709Z,14.23
2018-06-11T07:56:45.683Z,15.00
2018-06-11T07:59:12.651Z,15.80
2018-06-11T08:01:39.646Z,14.10
2018-06-11T08:04:06.625Z,15.77
2018-06-11T08:06:33.612Z,14.00
2018-06-11T08:09:00.602Z,14.87
2018-06-11T08:11:27.596Z,13.33
2018-06-11T08:13:54.573Z,13.63
2018-06-11T08:16:21.570Z,13.57
2018-06-11T08:18:48.550Z,14.70
2018-06-11T08:21:15.542Z,15.10
2018-06-11T08:23:42.513Z,15.33
2018-06-11T08:26:09.546Z,14.10
2018-06-11T08:28:36.539Z,14.80
2018-06-11T08:31:03.560Z,14.80
2018-06-11T08:33:30.553Z,14.53
2018-06-11T08:35:57.586Z,13.87
2018-06-11T08:38:24.546Z,14.00
2018-06-11T08:40:51.526Z,15.10
2018-06-11T08:43:18.548Z,13.93
2018-06-11T08:45:45.518Z,13.07
2018-06-11T08:48:12.509Z,15.57
2018-06-11T08:50:39.477Z,13.83
2018-06-11T08:53:06.465Z,14.07
2018-06-11T08:55:33.449Z,13.60
2018-06-11T08:58:00.433Z,13.50
2018-06-11T09:00:27.413Z,15.07
2018-06-11T09:02:54.402Z,14.20
2018-06-11T09:05:21.396Z,13.60
2018-06-11T09:07:48.398Z,13.83
2018-06-11T09:10:15.390Z,12.57
2018-06-11T09:12:42.374Z,11.80
2018-06-11T09:15:09.370Z,12.13
2018-06-11T09:17:36.375Z,10.73
2018-06-11T09:20:03.386Z,12.80
2018-06-11T09:22:30.381Z,12.50
2018-06-11T09:24:57.402Z,13.00
2018-06-11T09:27:24.390Z,12.47
2018-06-11T09:29:51.390Z,13.13
2018-06-11T09:32:18.398Z,12.80
2018-06-11T09:34:45.405Z,11.93
2018-06-11T09:37:12.394Z,13.40
2018-06-11T09:39:39.392Z,11.97
2018-06-11T09:42:06.387Z,11.83
2018-06-11T09:44:33.378Z,11.90
2018-06-11T09:47:00.382Z,11.73
2018-06-11T09:49:27.358Z,10.37
2018-06-11T09:51:54.356Z,10.40
2018-06-11T09:54:21.342Z,11.00
2018-06-11T09:56:48.354Z,11.60
2018-06-11T09:59:15.343Z,11.60
2018-06-11T10:01:42.335Z,11.40
2018-06-11T10:04:09.325Z,11.27
2018-06-11T10:06:36.314Z,11.60
2018-06-11T10:09:06.324Z,10.50
2018-06-11T10:11:33.318Z,10.40
2018-06-11T10:14:00.302Z,7.87
2018-06-11T10:16:27.369Z,5.73
2018-06-11T10:18:54.353Z,5.63
2018-06-11T10:21:21.351Z,5.80
2018-06-11T10:23:48.343Z,5.67
2018-06-11T10:26:15.341Z,3.70
2018-06-11T10:28:42.313Z,3.10
2018-06-11T10:31:09.294Z,2.77
2018-06-11T10:33:36.275Z,4.37
2018-06-11T10:36:03.241Z,4.17
2018-06-11T10:38:30.221Z,5.07
2018-06-11T10:40:57.181Z,5.10
2018-06-11T10:43:24.162Z,5.63
2018-06-11T10:45:51.129Z,6.87
2018-06-11T10:48:18.135Z,6.33
2018-06-11T10:50:45.117Z,6.60
2018-06-11T10:53:12.110Z,6.57
2018-06-11T10:55:39.093Z,7.80
2018-06-11T10:58:06.147Z,6.30
2018-06-11T11:00:33.135Z,6.70
2018-06-11T11:03:00.130Z,7.23
2018-06-11T11:05:27.110Z,7.27
2018-06-11T11:07:54.102Z,7.20
2018-06-11T11:10:21.097Z,6.93
2018-06-11T11:12:48.062Z,8.07
2018-06-11T11:15:15.062Z,6.00
2018-06-11T11:17:42.046Z,5.90
2018-06-11T11:20:09.041Z,4.90
2018-06-11T11:22:36.027Z,4.63
2018-06-11T11:25:03.018Z,4.33
2018-06-11T11:27:30.012Z,4.00
2018-06-11T11:29:57.005Z,3.60
2018-06-11T11:32:23.994Z,3.67
2018-06-11T11:34:51.001Z,3.70
2018-06-11T11:37:17.989Z,3.63
2018-06-11T11:39:44.989Z,3.83
2018-06-11T11:42:11.973Z,3.70
2018-06-11T11:44:39.003Z,3.00
2018-06-11T11:47:06.010Z,3.07
2018-06-11T11:49:33.030Z,3.37
2018-06-11T11:52:00.062Z,3.57
2018-06-11T11:54:27.078Z,3.13
2018-06-11T11:56:54.094Z,3.73
2018-06-11T11:59:21.086Z,3.60
2018-06-11T12:01:48.130Z,3.30
2018-06-11T12:04:15.112Z,3.50
2018-06-11T12:06:42.125Z,4.13
2018-06-11T12:09:09.132Z,3.90
2018-06-11T12:11:36.170Z,3.80
2018-06-11T12:14:03.226Z,3.97
2018-06-11T12:16:30.278Z,3.70
2018-06-11T12:18:57.285Z,4.00
2018-06-11T12:21:24.297Z,4.37
2018-06-11T12:23:51.290Z,3.90
2018-06-11T12:26:18.309Z,3.63
2018-06-11T12:28:45.313Z,4.10
2018-06-11T12:31:12.302Z,4.37
2018-06-11T12:33:39.315Z,3.80
2018-06-11T12:36:06.310Z,4.00
2018-06-11T12:38:33.320Z,4.77
2018-06-11T12:41:00.309Z,4.00
2018-06-11T12:43:27.330Z,5.30
2018-06-11T12:45:54.341Z,5.40
2018-06-11T12:48:21.334Z,6.10
2018-06-11T12:50:48.326Z,5.43
2018-06-11T12:53:15.320Z,5.53
2018-06-11T12:55:42.313Z,5.80
2018-06-11T12:58:09.377Z,6.27
2018-06-11T13:00:36.370Z,6.50
2018-06-11T13:03:03.381Z,6.83
2018-06-11T13:05:30.374Z,6.20
2018-06-11T13:07:57.358Z,6.50
2018-06-11T13:10:24.337Z,7.17
2018-06-11T13:12:51.322Z,7.63
2018-06-11T13:15:18.315Z,9.43
2018-06-11T13:17:45.297Z,9.37
2018-06-11T13:20:12.285Z,11.10
2018-06-11T13:22:39.279Z,11.33
2018-06-11T13:25:06.245Z,11.50
2018-06-11T13:27:33.242Z,12.13
2018-06-11T13:30:00.217Z,13.00
2018-06-11T13:32:27.173Z,13.63
2018-06-11T13:34:54.167Z,13.50
2018-06-11T13:37:21.154Z,15.97
2018-06-11T13:39:48.129Z,15.20
2018-06-11T13:42:15.171Z,15.07
2018-06-11T13:44:42.216Z,16.20
2018-06-11T13:47:09.170Z,17.23
2018-06-11T13:49:36.213Z,17.97
2018-06-11T13:52:03.193Z,19.77
2018-06-11T13:54:30.171Z,21.40
2018-06-11T13:56:58.242Z,21.07
2018-06-11T13:59:25.250Z,22.47
2018-06-11T14:01:52.225Z,23.30
2018-06-11T14:04:19.445Z,23.23
2018-06-11T14:06:46.438Z,24.30
2018-06-11T14:09:13.414Z,25.80
2018-06-11T14:11:40.402Z,24.20
2018-06-11T14:14:07.570Z,25.83
2018-06-11T14:16:34.549Z,26.10
2018-06-11T14:19:01.531Z,27.60
2018-06-11T14:21:28.539Z,26.90
2018-06-11T14:23:55.506Z,28.67
2018-06-11T14:26:22.502Z,24.77
2018-06-11T14:28:49.753Z,25.23
2018-06-11T14:31:16.746Z,24.77
2018-06-11T14:33:43.722Z,23.57
2018-06-11T14:36:10.709Z,24.67
2018-06-11T14:38:37.769Z,26.10
2018-06-11T14:41:04.808Z,25.83
2018-06-11T14:43:31.908Z,25.37
2018-06-11T14:45:58.901Z,23.93
2018-06-11T14:48:25.889Z,23.60
2018-06-11T14:50:52.877Z,23.20
2018-06-11T14:53:20.172Z,22.03
2018-06-11T14:55:47.217Z,20.50
2018-06-11T14:58:14.271Z,19.17
2018-06-11T15:00:41.233Z,17.80
2018-06-11T15:03:08.407Z,16.90
2018-06-11T15:05:35.383Z,18.93
2018-06-11T15:08:02.587Z,18.70
2018-06-11T15:10:29.594Z,18.47
2018-06-11T15:12:56.639Z,17.70
2018-06-11T15:15:23.918Z,18.13
2018-06-11T15:17:50.927Z,18.00
2018-06-11T15:20:17.910Z,15.90
2018-06-11T15:22:44.973Z,17.37
2018-06-11T15:25:12.156Z,16.63
2018-06-11T15:27:39.167Z,17.70
2018-06-11T15:30:06.203Z,18.60
2018-06-11T15:32:37.563Z,19.07
2018-06-11T15:35:06.943Z,18.90
2018-06-11T15:37:33.958Z,18.77
2018-06-11T15:40:04.152Z,20.23
2018-06-11T15:42:34.239Z,20.17
2018-06-11T15:45:04.739Z,20.77
2018-06-11T15:47:33.915Z,19.40
2018-06-11T15:50:00.926Z,19.83
2018-06-11T15:52:27.929Z,21.00
2018-06-11T15:54:54.970Z,20.33
2018-06-11T15:57:21.958Z,20.47
2018-06-11T15:59:49.007Z,21.50
2018-06-11T16:02:16.002Z,22.80
2018-06-11T16:04:42.996Z,24.53
2018-06-11T16:07:09.989Z,24.03
2018-06-11T16:09:36.978Z,24.33
2018-06-11T16:12:04.002Z,22.40
2018-06-11T16:14:30.978Z,23.37
2018-06-11T16:16:57.989Z,22.70
2018-06-11T16:19:24.993Z,24.27
2018-06-11T16:21:51.977Z,23.07
2018-06-11T16:24:18.993Z,22.40
2018-06-11T16:26:45.986Z,24.80
2018-06-11T16:29:12.965Z,23.90
2018-06-11T16:31:45.629Z,23.07
2018-06-11T16:34:12.610Z,25.27
2018-06-11T16:36:39.616Z,25.00
2018-06-11T16:39:07.269Z,25.33
2018-06-11T16:41:34.259Z,26.77
2018-06-11T16:44:01.269Z,23.93
2018-06-11T16:46:28.274Z,24.37
2018-06-11T16:48:55.332Z,25.43
2018-06-11T16:51:22.266Z,27.27
2018-06-11T16:53:49.269Z,28.03
2018-06-11T16:56:16.277Z,29.70
2018-06-11T16:58:43.270Z,32.23
2018-06-11T17:01:10.274Z,30.60
2018-06-11T17:03:37.282Z,29.67
2018-06-11T17:06:04.301Z,31.43
2018-06-11T17:08:31.286Z,30.90
2018-06-11T17:10:58.330Z,31.53
2018-06-11T17:13:25.306Z,33.30
2018-06-11T17:15:52.328Z,33.60
2018-06-11T17:18:19.332Z,32.10
2018-06-11T17:20:46.321Z,32.30
2018-06-11T17:23:13.322Z,33.30
2018-06-11T17:25:40.311Z,33.23
2018-06-11T17:28:07.590Z,32.80
2018-06-11T17:30:34.578Z,31.63
2018-06-11T17:33:01.574Z,33.07
2018-06-11T17:35:28.582Z,31.70
2018-06-11T17:37:55.582Z,33.53
2018-06-11T17:40:22.574Z,33.27
2018-06-11T17:42:49.573Z,34.10
2018-06-11T17:45:16.562Z,34.77
2018-06-11T17:47:43.556Z,34.50
2018-06-11T17:50:10.534Z,34.20
2018-06-11T17:52:37.541Z,31.97
2018-06-11T17:55:04.522Z,36.73
2018-06-11T17:57:31.600Z,32.40
2018-06-11T17:59:58.521Z,31.03
2018-06-11T18:02:25.518Z,32.80
2018-06-11T18:04:52.556Z,38.43
2018-06-11T18:07:19.563Z,34.37
2018-06-11T18:09:46.566Z,34.50
2018-06-11T18:12:13.569Z,33.70
2018-06-11T18:14:40.643Z,37.47
2018-06-11T18:17:07.556Z,37.00
2018-06-11T18:19:34.563Z,35.17
2018-06-11T18:22:01.570Z,34.83
2018-06-11T18:24:28.567Z,34.53
2018-06-11T18:26:55.558Z,35.70
2018-06-11T18:29:22.564Z,36.83
2018-06-11T18:31:49.554Z,35.53
2018-06-11T18:34:16.542Z,36.17
2018-06-11T18:36:43.532Z,34.47
2018-06-11T18:39:10.546Z,39.37
2018-06-11T18:41:37.546Z,37.17
2018-06-11T18:44:04.547Z,39.83
2018-06-11T18:46:31.531Z,37.90
2018-06-11T18:48:58.535Z,37.07
2018-06-11T18:51:25.550Z,37.43
2018-06-11T18:53:52.553Z,38.60
2018-06-11T18:56:19.623Z,40.07
2018-06-11T18:58:46.617Z,36.50
2018-06-11T19:01:13.626Z,41.67
2018-06-11T19:03:40.614Z,40.60
2018-06-11T19:06:07.619Z,41.87
2018-06-11T19:08:34.603Z,40.30
2018-06-11T19:11:01.594Z,39.40
2018-06-11T19:13:28.584Z,38.50
2018-06-11T19:15:55.593Z,41.73
2018-06-11T19:18:22.574Z,40.37
2018-06-11T19:20:49.569Z,40.40
2018-06-11T19:23:17.134Z,39.77
2018-06-11T19:25:44.133Z,41.13
2018-06-11T19:28:11.320Z,38.90
2018-06-11T19:30:38.326Z,39.50
2018-06-11T19:33:05.365Z,40.23
2018-06-11T19:35:32.470Z,39.97
2018-06-11T19:37:59.405Z,40.83
2018-06-11T19:40:26.430Z,39.77
2018-06-11T19:42:53.476Z,40.73
2018-06-11T19:45:20.489Z,40.97
2018-06-11T19:47:47.545Z,39.30
2018-06-11T19:50:14.656Z,39.10
2018-06-11T19:52:41.592Z,38.40
2018-06-11T19:55:08.602Z,32.20
2018-06-11T19:57:35.638Z,28.07
2018-06-11T20:00:05.856Z,27.60
2018-06-11T20:02:32.903Z,26.60
2018-06-11T20:04:59.910Z,26.73
2018-06-11T20:07:26.930Z,26.70
2018-06-11T20:09:53.931Z,23.00
2018-06-11T20:12:20.967Z,24.43
2018-06-11T20:14:47.965Z,26.90
2018-06-11T20:17:15.084Z,27.40
2018-06-11T20:19:42.119Z,23.03
2018-06-11T20:22:09.106Z,22.97
2018-06-11T20:24:36.102Z,19.30
2018-06-11T20:27:03.093Z,20.80
2018-06-11T20:29:30.086Z,21.07
2018-06-11T20:31:57.065Z,20.90
2018-06-11T20:34:24.056Z,19.60
2018-06-11T20:36:51.038Z,19.10
2018-06-11T20:39:18.050Z,21.43
2018-06-11T20:41:45.032Z,20.90
2018-06-11T20:44:12.185Z,17.87
2018-06-11T20:46:41.024Z,18.07
2018-06-11T20:49:12.363Z,20.17
2018-06-11T20:51:44.055Z,21.73
2018-06-11T20:54:14.914Z,21.33
2018-06-11T20:57:02.245Z,24.27
2018-06-11T20:59:34.003Z,23.70
2018-06-11T21:02:06.568Z,19.67
2018-06-11T21:04:33.944Z,17.80
2018-06-11T21:07:03.299Z,16.57
2018-06-11T21:09:33.828Z,15.23
2018-06-11T21:12:00.829Z,16.07
2018-06-11T21:14:27.854Z,15.10
2018-06-11T21:16:54.858Z,14.23
2018-06-11T21:19:21.849Z,15.63
2018-06-11T21:21:48.901Z,16.50
2018-06-11T21:24:15.907Z,15.27
2018-06-11T21:26:42.922Z,15.70
2018-06-11T21:29:09.953Z,16.40
2018-06-11T21:31:37.185Z,16.50
2018-06-11T21:34:04.207Z,17.87
2018-06-11T21:36:31.586Z,16.97
2018-06-11T21:38:58.578Z,15.77
2018-06-11T21:41:25.593Z,16.97
2018-06-11T21:43:52.587Z,15.90
2018-06-11T21:46:19.597Z,15.10
2018-06-11T21:48:46.602Z,15.90
2018-06-11T21:51:13.610Z,14.27
2018-06-11T21:53:40.610Z,13.60
2018-06-11T21:56:07.898Z,14.27
2018-06-11T21:58:34.914Z,15.47
2018-06-11T22:01:01.963Z,15.13
2018-06-11T22:03:28.968Z,16.10
2018-06-11T22:05:56.171Z,18.07
2018-06-11T22:08:23.199Z,16.47
2018-06-11T22:10:50.207Z,15.70
2018-06-11T22:13:17.198Z,15.93
2018-06-11T22:15:44.867Z,17.07
2018-06-11T22:18:11.865Z,17.20
2018-06-11T22:20:38.846Z,16.73
2018-06-11T22:23:06.009Z,13.50
2018-06-11T22:25:33.001Z,13.97
2018-06-11T22:28:00.030Z,13.70
2018-06-11T22:30:27.096Z,14.57
2018-06-11T22:32:54.041Z,13.53
2018-06-11T22:35:21.033Z,13.23
2018-06-11T22:37:48.009Z,12.87
2018-06-11T22:40:15.001Z,13.50
2018-06-11T22:42:42.781Z,13.07
2018-06-11T22:45:09.763Z,13.77
2018-06-11T22:47:36.750Z,13.70
2018-06-11T22:50:03.769Z,15.43
2018-06-11T22:52:34.041Z,15.97
2018-06-11T22:55:03.888Z,16.43
2018-06-11T22:57:35.250Z,16.60
2018-06-11T23:00:02.278Z,18.40
2018-06-11T23:02:29.275Z,18.23
2018-06-11T23:04:56.266Z,19.43
2018-06-11T23:07:23.290Z,21.40
2018-06-11T23:09:50.290Z,22.30
2018-06-11T23:12:17.302Z,22.67
2018-06-11T23:14:44.318Z,23.83
2018-06-11T23:17:11.318Z,25.30
2018-06-11T23:19:38.347Z,26.70
2018-06-11T23:22:05.358Z,25.87
2018-06-11T23:24:32.358Z,26.33
2018-06-11T23:26:59.386Z,25.33
2018-06-11T23:29:26.394Z,23.73
2018-06-11T23:31:53.401Z,27.10
2018-06-11T23:43:01.480Z,26.13
2018-06-11T23:45:28.485Z,27.83
2018-06-11T23:47:55.477Z,29.53
2018-06-11T23:50:22.477Z,29.50
2018-06-11T23:52:49.496Z,31.07
2018-06-11T23:55:16.486Z,29.57
2018-06-11T23:57:43.460Z,30.40
